Time;durP1;ratioP1;P1;durP2;ratioP2;P2;SDS_P1;SDS_P2;PMS_P1;PMS_P2;Temp;Humidity;BMP_temperature;BMP_pressure;BME280_temperature;BME280_humidity;BME280_pressure;Samples;Min_cycle;Max_cycle;Signal;HPM_P1;HPM_P2
2023/11/26 00:02:03;;;;;;;;;17.50;9.00;;;;;6.25;59.69;101404.66;5096623;27;47228;-58
2023/11/26 00:04:29;;;;;;;;;8.75;7.00;;;;;6.25;59.69;101389.06;5083933;27;45327;-58
2023/11/26 00:06:54;;;;;;;;;11.00;10.00;;;;;6.26;59.74;101406.38;5096567;27;69249;-58
2023/11/26 00:09:22;;;;;;;;;13.50;9.00;;;;;6.25;59.76;101395.97;5082273;27;73661;-58
2023/11/26 00:11:48;;;;;;;;;29.00;21.75;;;;;6.26;60.07;101406.38;5087370;27;46992;-58
2023/11/26 00:14:13;;;;;;;;;9.50;8.00;;;;;6.25;59.85;101404.66;5083073;27;45867;-58
2023/11/26 00:16:39;;;;;;;;;11.50;8.25;;;;;6.24;59.96;101405.50;5075230;27;68785;-57
2023/11/26 00:19:04;;;;;;;;;15.25;9.00;;;;;6.25;60.01;101408.97;5099554;27;73114;-58
2023/11/26 00:21:31;;;;;;;;;13.00;9.25;;;;;6.28;59.95;101411.56;5083166;27;45522;-58
2023/11/26 00:23:57;;;;;;;;;8.75;8.00;;;;;6.29;59.97;101402.06;5094241;27;45413;-58
2023/11/26 00:26:24;;;;;;;;;11.75;10.25;;;;;6.30;59.96;101409.84;5095253;27;45499;-58
2023/11/26 00:28:49;;;;;;;;;15.00;8.75;;;;;6.30;59.86;101403.78;5096638;27;45442;-58
2023/11/26 00:31:15;;;;;;;;;11.50;8.50;;;;;6.24;59.94;101400.31;5101046;27;45444;-57
2023/11/26 00:33:44;;;;;;;;;9.25;7.75;;;;;6.30;59.85;101401.19;5090736;27;45434;-57
2023/11/26 00:36:11;;;;;;;;;12.50;8.00;;;;;6.30;59.96;101398.59;5087891;27;45379;-58
2023/11/26 00:38:37;;;;;;;;;10.75;9.25;;;;;6.31;60.00;101396.00;5089524;27;59152;-58
2023/11/26 00:41:02;;;;;;;;;7.50;7.00;;;;;6.31;59.74;101389.94;5074862;27;68105;-58
2023/11/26 00:43:27;;;;;;;;;10.00;7.25;;;;;6.30;59.79;101393.38;5090026;27;71628;-59
2023/11/26 00:45:53;;;;;;;;;12.25;7.50;;;;;6.29;59.90;101389.94;5085640;27;45550;-59
2023/11/26 00:48:18;;;;;;;;;8.25;7.50;;;;;6.31;59.73;101389.94;5084335;27;49370;-59
2023/11/26 00:50:43;;;;;;;;;15.75;9.25;;;;;6.30;60.00;101389.03;5078945;27;45819;-59
2023/11/26 00:53:09;;;;;;;;;10.25;8.25;;;;;6.30;59.96;101391.63;5080707;27;74694;-57
2023/11/26 00:55:34;;;;;;;;;12.25;7.50;;;;;6.31;59.92;101390.78;5074955;28;45456;-58
2023/11/26 00:57:59;;;;;;;;;13.50;9.50;;;;;6.31;60.01;101393.38;5094532;27;45326;-59
2023/11/26 01:00:25;;;;;;;;;5.50;5.50;;;;;6.31;60.12;101389.94;5092496;27;53129;-57
2023/11/26 01:02:50;;;;;;;;;13.75;7.75;;;;;6.30;59.57;101385.59;5095657;27;45349;-58
2023/11/26 01:05:15;;;;;;;;;9.00;7.00;;;;;6.29;60.10;101384.72;5075790;27;52680;-59
2023/11/26 01:07:41;;;;;;;;;18.25;11.25;;;;;6.29;60.05;101384.72;5092778;27;73063;-58
2023/11/26 01:10:07;;;;;;;;;9.25;7.75;;;;;6.24;59.90;101381.25;5073009;27;45412;-58
2023/11/26 01:12:32;;;;;;;;;14.25;8.25;;;;;6.21;60.04;101376.91;5069261;27;45325;-59
2023/11/26 01:14:58;;;;;;;;;13.50;8.25;;;;;6.19;60.05;101382.97;5101229;27;45458;-57
2023/11/26 01:17:23;;;;;;;;;8.75;6.00;;;;;6.18;60.05;101381.22;5082358;27;45864;-58
2023/11/26 01:19:48;;;;;;;;;14.25;7.25;;;;;6.17;60.08;101390.75;5075677;28;47030;-58
2023/11/26 01:22:14;;;;;;;;;9.25;7.25;;;;;6.13;60.15;101380.38;5099947;27;45220;-58
2023/11/26 01:24:39;;;;;;;;;7.50;4.00;;;;;6.17;60.20;101389.91;5100513;27;61690;-58
2023/11/26 01:27:05;;;;;;;;;9.75;7.50;;;;;6.19;60.08;101386.44;5094332;27;72767;-57
2023/11/26 01:29:31;;;;;;;;;7.50;6.75;;;;;6.19;60.00;101382.97;5074660;28;45351;-59
2023/11/26 01:31:56;;;;;;;;;14.00;7.00;;;;;6.20;60.07;101388.19;5052968;27;74461;-59
2023/11/26 01:34:21;;;;;;;;;8.50;6.00;;;;;6.20;60.00;101385.59;5100185;27;45383;-59
2023/11/26 01:36:47;;;;;;;;;11.25;4.00;;;;;6.19;59.97;101382.97;5097149;27;72170;-57
2023/11/26 01:39:12;;;;;;;;;4.75;4.75;;;;;6.21;59.90;101394.22;5092468;27;66022;-58
2023/11/26 01:41:38;;;;;;;;;8.50;6.50;;;;;6.21;60.23;101381.25;5072284;27;48524;-57
2023/11/26 01:44:03;;;;;;;;;11.00;7.50;;;;;6.21;60.26;101389.03;5095243;27;45474;-58
2023/11/26 01:46:29;;;;;;;;;8.75;4.25;;;;;6.19;60.23;101381.22;5098499;27;45537;-58
2023/11/26 01:48:55;;;;;;;;;9.25;4.00;;;;;6.19;60.23;101380.38;5091522;27;45505;-57
2023/11/26 01:51:20;;;;;;;;;5.50;3.25;;;;;6.17;60.19;101380.38;5075416;27;45489;-58
2023/11/26 01:53:49;;;;;;;;;5.25;3.75;;;;;6.14;60.46;101382.94;5097014;27;67025;-56
2023/11/26 01:56:15;;;;;;;;;4.00;3.25;;;;;6.13;60.25;101381.25;5079727;27;45275;-59
2023/11/26 01:58:40;;;;;;;;;6.00;4.00;;;;;6.12;60.28;101387.28;5094055;27;59546;-57
2023/11/26 02:01:06;;;;;;;;;8.75;3.50;;;;;6.14;60.17;101389.88;5086535;27;64739;-58
2023/11/26 02:03:31;;;;;;;;;6.50;6.25;;;;;6.12;60.33;101387.28;5080420;27;66432;-58
2023/11/26 02:05:56;;;;;;;;;3.75;3.75;;;;;6.11;60.16;101384.69;5088920;27;53819;-58
2023/11/26 02:08:22;;;;;;;;;8.25;6.50;;;;;6.11;60.28;101387.28;5097549;27;46152;-58
2023/11/26 02:10:48;;;;;;;;;8.50;4.00;;;;;6.11;60.33;101395.06;5085168;27;45434;-59
2023/11/26 02:13:14;;;;;;;;;7.00;5.25;;;;;6.08;60.30;101391.63;5094493;27;45462;-58
2023/11/26 02:15:39;;;;;;;;;12.00;7.00;;;;;6.10;60.27;101395.97;5098595;27;45350;-58
2023/11/26 02:18:04;;;;;;;;;9.25;5.25;;;;;6.11;60.30;101392.47;5086653;27;59349;-58
2023/11/26 02:20:30;;;;;;;;;9.00;6.75;;;;;6.09;60.34;101389.88;5098427;27;45337;-58
2023/11/26 02:22:55;;;;;;;;;12.00;7.00;;;;;6.09;60.39;101397.66;5098470;27;45307;-57
2023/11/26 02:25:23;;;;;;;;;6.50;4.50;;;;;6.08;60.27;101388.16;5099598;27;51113;-58
2023/11/26 02:27:52;;;;;;;;;10.75;6.75;;;;;6.08;60.41;101396.81;5093660;27;46911;-55
2023/11/26 02:30:20;;;;;;;;;9.75;6.00;;;;;6.09;60.49;101389.88;5091898;27;45296;-57
2023/11/26 02:32:47;;;;;;;;;9.00;7.00;;;;;6.09;60.42;101392.47;5093030;27;45281;-58
2023/11/26 02:35:12;;;;;;;;;9.25;4.25;;;;;6.09;60.52;101392.47;5091620;27;45591;-58
2023/11/26 02:37:37;;;;;;;;;7.50;6.00;;;;;6.10;60.43;101394.22;5091196;27;74448;-58
2023/11/26 02:40:05;;;;;;;;;9.00;6.00;;;;;6.11;60.55;101392.47;5097942;27;73303;-58
2023/11/26 02:42:32;;;;;;;;;5.25;4.75;;;;;6.08;60.61;101393.34;5086478;27;45425;-58
2023/11/26 02:44:59;;;;;;;;;5.50;4.00;;;;;6.07;60.41;101389.00;5094986;27;45482;-59
2023/11/26 02:47:24;;;;;;;;;7.25;2.75;;;;;6.05;60.37;101391.59;5102352;27;45431;-59
2023/11/26 02:49:49;;;;;;;;;4.50;4.00;;;;;6.03;60.49;101398.53;5099486;27;63770;-58
2023/11/26 02:52:14;;;;;;;;;5.50;3.00;;;;;5.99;60.42;101395.94;5088406;27;69365;-59
2023/11/26 02:54:40;;;;;;;;;6.00;3.00;;;;;5.94;60.39;101392.41;5076575;27;72185;-58
2023/11/26 02:57:06;;;;;;;;;7.50;6.00;;;;;5.91;60.67;101388.06;5098732;27;75559;-59
2023/11/26 02:59:31;;;;;;;;;6.00;6.00;;;;;5.90;60.65;101388.94;5096740;27;45357;-58
2023/11/26 03:01:58;;;;;;;;;8.50;5.50;;;;;5.90;60.75;101389.81;5100700;27;45469;-58
2023/11/26 03:04:23;;;;;;;;;8.75;6.50;;;;;5.87;60.60;101387.19;5098335;27;45177;-59
2023/11/26 03:06:49;;;;;;;;;7.75;3.75;;;;;5.88;60.76;101385.47;5096165;27;45848;-58
2023/11/26 03:13:06;;;;;;;;;6.00;6.00;;;;;5.87;60.74;101387.19;5099529;27;45271;-58
2023/11/26 03:14:48;;;;;;;;;4.75;4.00;;;;;5.83;60.88;101382.84;5085051;27;45393;-58
2023/11/26 03:17:14;;;;;;;;;10.00;5.50;;;;;5.85;60.84;101381.13;5100473;27;46170;-58
2023/11/26 03:19:39;;;;;;;;;6.25;6.25;;;;;5.85;60.98;101382.88;5093963;27;45484;-58
2023/11/26 03:22:09;;;;;;;;;4.00;4.00;;;;;5.83;61.08;101380.25;5084180;27;45450;-59
2023/11/26 03:24:36;;;;;;;;;9.00;3.75;;;;;5.85;61.06;101382.88;5088509;27;45378;-58
2023/11/26 03:27:02;;;;;;;;;6.75;5.00;;;;;5.85;61.08;101381.13;5086788;27;46353;-59
2023/11/26 03:29:28;;;;;;;;;8.25;8.00;;;;;5.85;60.89;101377.69;5090242;27;45355;-59
2023/11/26 03:31:53;;;;;;;;;11.25;8.00;;;;;5.87;60.87;101386.34;5099365;27;45530;-59
2023/11/26 03:34:19;;;;;;;;;7.75;6.00;;;;;5.89;61.05;101389.78;5097910;27;73207;-59
2023/11/26 03:36:44;;;;;;;;;5.00;5.00;;;;;5.90;60.84;101381.16;5093720;27;75444;-59
2023/11/26 03:39:12;;;;;;;;;7.25;4.50;;;;;5.89;61.16;101384.59;5096027;27;66826;-58
2023/11/26 03:41:38;;;;;;;;;5.00;4.00;;;;;5.91;60.86;101380.28;5099281;27;45338;-58
2023/11/26 03:44:03;;;;;;;;;11.25;6.75;;;;;5.90;60.91;101376.81;5096213;27;45461;-60
2023/11/26 03:46:32;;;;;;;;;16.50;6.00;;;;;5.91;60.85;101380.28;5095770;27;46085;-58
2023/11/26 03:48:58;;;;;;;;;6.75;6.00;;;;;5.90;60.79;101378.56;5086285;27;45717;-59
2023/11/26 03:51:23;;;;;;;;;6.50;4.00;;;;;5.91;60.86;101377.69;5102743;27;45939;-59
2023/11/26 03:53:48;;;;;;;;;8.50;6.75;;;;;5.91;60.82;101372.47;5099951;27;45471;-58
2023/11/26 03:56:14;;;;;;;;;8.25;5.50;;;;;5.90;61.05;101375.97;5102184;27;46163;-58
2023/11/26 03:58:40;;;;;;;;;6.00;4.00;;;;;5.89;61.08;101382.00;5103253;27;45367;-58
2023/11/26 04:01:06;;;;;;;;;10.25;6.50;;;;;5.88;60.84;101375.09;5098526;27;46310;-59
2023/11/26 04:03:31;;;;;;;;;7.75;4.00;;;;;5.86;60.95;101372.50;5090263;27;45367;-59
2023/11/26 04:05:56;;;;;;;;;8.00;4.00;;;;;5.88;60.86;101378.56;5106266;27;45330;-59
2023/11/26 04:08:22;;;;;;;;;6.25;4.00;;;;;5.86;60.97;101369.88;5102282;27;72329;-58
2023/11/26 04:10:48;;;;;;;;;6.00;4.00;;;;;5.87;61.23;101369.00;5103786;27;45394;-59
2023/11/26 04:13:13;;;;;;;;;5.50;4.00;;;;;5.87;61.07;101369.00;5095902;27;45294;-58
2023/11/26 04:15:44;;;;;;;;;10.75;7.00;;;;;5.87;61.11;101368.16;5077456;27;74196;-58
2023/11/26 04:18:10;;;;;;;;;6.75;4.00;;;;;5.87;61.24;101370.75;5097224;27;45380;-57
2023/11/26 04:20:35;;;;;;;;;7.75;7.00;;;;;5.87;61.12;101374.19;5094498;27;45561;-58
2023/11/26 04:23:00;;;;;;;;;8.00;6.75;;;;;5.87;61.15;101373.34;5092718;27;73145;-57
2023/11/26 04:25:26;;;;;;;;;11.00;7.25;;;;;5.86;61.22;101366.41;5095878;27;72407;-58
2023/11/26 04:27:51;;;;;;;;;6.00;4.00;;;;;5.85;61.21;101369.88;5093502;27;71433;-58
2023/11/26 04:30:17;;;;;;;;;3.75;3.75;;;;;5.84;61.30;101366.44;5094062;27;69366;-58
2023/11/26 04:32:42;;;;;;;;;9.00;4.50;;;;;5.84;61.38;101368.13;5081834;27;45891;-57
2023/11/26 04:35:08;;;;;;;;;9.00;5.50;;;;;5.84;61.11;101366.44;5096406;27;45323;-58
2023/11/26 04:37:34;;;;;;;;;8.50;3.00;;;;;5.83;61.29;101363.81;5092665;27;45298;-57
2023/11/26 04:39:59;;;;;;;;;6.25;5.00;;;;;5.83;61.44;101356.88;5099842;27;45470;-57
2023/11/26 04:42:25;;;;;;;;;7.50;4.75;;;;;5.84;61.44;101362.94;5095881;27;45492;-57
2023/11/26 04:44:51;;;;;;;;;7.75;4.00;;;;;5.84;61.51;101366.44;5100612;27;75417;-57
2023/11/26 04:47:16;;;;;;;;;4.50;3.00;;;;;5.86;61.49;101366.41;5094589;27;45240;-57
2023/11/26 04:49:42;;;;;;;;;8.50;5.25;;;;;5.86;61.42;101375.09;5079156;27;45437;-58
2023/11/26 04:52:08;;;;;;;;;8.00;5.00;;;;;5.86;61.47;101371.59;5095086;27;72301;-57
2023/11/26 04:54:34;;;;;;;;;9.00;7.00;;;;;5.87;61.54;101371.59;5095371;27;45612;-58
2023/11/26 04:56:59;;;;;;;;;7.00;5.50;;;;;5.87;61.42;101374.19;5097991;27;45483;-58
2023/11/26 04:59:24;;;;;;;;;7.50;7.00;;;;;5.89;61.47;101369.03;5098818;27;53160;-57
2023/11/26 05:01:54;;;;;;;;;7.50;6.00;;;;;5.89;61.55;101371.63;5093002;27;45336;-58
2023/11/26 05:04:19;;;;;;;;;8.50;1.00;;;;;5.87;61.74;101363.81;5094112;27;47000;-57
2023/11/26 05:06:45;;;;;;;;;7.50;6.00;;;;;5.88;61.47;101362.97;5078445;27;45295;-58
2023/11/26 05:09:12;;;;;;;;;7.00;5.00;;;;;5.87;61.78;101366.41;5077067;27;59926;-57
2023/11/26 05:11:44;;;;;;;;;9.75;6.25;;;;;5.87;61.51;101366.41;5101066;27;45372;-58
2023/11/26 05:14:10;;;;;;;;;3.00;2.00;;;;;5.89;61.72;101369.03;5101146;27;46188;-57
2023/11/26 05:16:36;;;;;;;;;7.00;5.00;;;;;5.90;61.71;101365.56;5095740;27;45246;-58
2023/11/26 05:19:01;;;;;;;;;15.75;7.00;;;;;5.90;61.78;101360.38;5100030;27;46783;-57
2023/11/26 05:21:27;;;;;;;;;7.50;7.00;;;;;5.90;61.69;101371.63;5075547;27;73119;-57
2023/11/26 05:23:53;;;;;;;;;9.75;6.75;;;;;5.94;61.61;101366.44;5097408;27;45229;-57
2023/11/26 05:26:18;;;;;;;;;9.00;6.00;;;;;5.94;61.76;101363.84;5094412;27;45433;-58
2023/11/26 05:28:43;;;;;;;;;8.50;6.75;;;;;5.94;61.81;101367.31;5097845;27;52271;-58
2023/11/26 05:31:10;;;;;;;;;7.75;6.00;;;;;5.94;61.70;101366.44;5092748;27;45578;-57
2023/11/26 05:33:36;;;;;;;;;7.00;6.00;;;;;5.93;61.51;101372.50;5099023;27;46870;-57
2023/11/26 05:36:04;;;;;;;;;5.25;4.00;;;;;5.90;61.65;101371.63;5091110;27;73361;-57
2023/11/26 05:38:29;;;;;;;;;7.75;4.00;;;;;5.90;61.75;101365.56;5096265;27;45290;-58
2023/11/26 05:40:55;;;;;;;;;7.00;6.25;;;;;5.92;61.65;101374.22;5098026;27;45460;-58
2023/11/26 05:43:20;;;;;;;;;8.00;6.00;;;;;5.93;61.65;101364.69;5099770;27;75738;-58
2023/11/26 05:45:45;;;;;;;;;7.00;4.00;;;;;5.91;61.79;101369.88;5095783;27;73106;-57
2023/11/26 05:48:11;;;;;;;;;8.75;4.00;;;;;5.88;61.77;101362.97;5099707;27;45421;-57
2023/11/26 05:50:36;;;;;;;;;8.00;4.00;;;;;5.88;61.90;101364.69;5093497;27;67555;-57
2023/11/26 05:53:02;;;;;;;;;5.00;4.00;;;;;5.85;62.12;101365.53;5099940;27;56001;-57
2023/11/26 05:55:27;;;;;;;;;7.25;6.25;;;;;5.86;62.03;101366.41;5093527;27;45228;-57
2023/11/26 05:57:52;;;;;;;;;3.00;3.00;;;;;5.84;62.04;101353.44;5094618;27;67238;-58
2023/11/26 06:00:18;;;;;;;;;5.75;4.00;;;;;5.86;62.07;101356.00;5083046;27;68400;-58
2023/11/26 06:02:44;;;;;;;;;7.50;6.75;;;;;5.88;62.25;101357.78;5092460;27;46388;-58
2023/11/26 06:05:09;;;;;;;;;9.00;6.00;;;;;5.88;62.16;101346.53;5091860;27;45343;-56
2023/11/26 06:07:34;;;;;;;;;8.00;5.50;;;;;5.92;62.17;101356.03;5100327;27;45403;-57
2023/11/26 06:10:00;;;;;;;;;12.25;6.25;;;;;5.95;62.17;101357.75;5082731;27;71953;-57
2023/11/26 06:12:25;;;;;;;;;7.75;4.00;;;;;5.96;62.26;101357.81;5100068;27;46235;-57
2023/11/26 06:14:51;;;;;;;;;10.00;5.50;;;;;6.00;62.20;101358.69;5091286;27;68548;-57
2023/11/26 06:17:16;;;;;;;;;6.00;5.50;;;;;6.03;62.11;101358.69;5100412;27;45500;-58
2023/11/26 06:19:41;;;;;;;;;6.00;6.00;;;;;6.07;62.17;101357.81;5089199;27;71270;-57
2023/11/26 06:22:07;;;;;;;;;5.25;2.00;;;;;6.10;62.08;101359.56;5097133;27;75600;-58
2023/11/26 06:24:33;;;;;;;;;12.00;6.25;;;;;6.12;62.26;101366.50;5082509;27;45311;-57
2023/11/26 06:26:58;;;;;;;;;7.75;6.25;;;;;6.14;62.02;101366.50;5096410;27;45470;-58
2023/11/26 06:29:23;;;;;;;;;7.25;6.50;;;;;6.12;62.10;101370.84;5093232;27;46085;-58
2023/11/26 06:31:49;;;;;;;;;9.75;7.50;;;;;6.12;62.10;101370.84;5092316;27;46199;-57
2023/11/26 06:34:14;;;;;;;;;7.75;7.00;;;;;6.11;62.13;101377.78;5092592;27;72023;-58
2023/11/26 06:36:39;;;;;;;;;8.00;7.00;;;;;6.11;62.17;101372.56;5095633;27;45414;-58
2023/11/26 06:39:06;;;;;;;;;6.50;6.25;;;;;6.13;62.28;101373.44;5100660;27;45393;-58
2023/11/26 06:41:32;;;;;;;;;6.25;5.50;;;;;6.11;62.16;101366.50;5097904;27;45388;-58
2023/11/26 06:43:59;;;;;;;;;7.00;6.25;;;;;6.11;62.21;101367.38;5082036;27;71389;-58
2023/11/26 06:46:26;;;;;;;;;6.50;5.25;;;;;6.11;62.07;101382.09;5096984;27;45362;-58
2023/11/26 06:48:52;;;;;;;;;9.75;7.00;;;;;6.10;62.20;101369.97;5097543;27;45442;-58
2023/11/26 06:51:20;;;;;;;;;5.00;2.50;;;;;6.11;62.52;101385.56;5102406;27;68864;-59
2023/11/26 06:53:46;;;;;;;;;10.75;4.25;;;;;6.13;62.26;101367.38;5102487;27;45243;-58
2023/11/26 06:56:12;;;;;;;;;9.25;6.00;;;;;6.16;62.28;101367.38;5098517;27;45437;-58
2023/11/26 06:58:41;;;;;;;;;6.25;5.00;;;;;6.16;62.30;101367.38;5095039;27;45400;-59
2023/11/26 07:01:07;;;;;;;;;8.00;3.75;;;;;6.19;62.11;101363.03;5100999;27;46306;-59
2023/11/26 07:03:34;;;;;;;;;4.00;4.00;;;;;6.20;62.04;101372.59;5093549;27;45330;-58
2023/11/26 07:06:05;;;;;;;;;6.50;6.00;;;;;6.21;62.10;101368.25;5098718;27;45224;-59
2023/11/26 07:08:31;;;;;;;;;3.25;3.25;;;;;6.23;62.04;101370.00;5097612;27;45395;-59
2023/11/26 07:10:56;;;;;;;;;6.00;4.00;;;;;6.23;61.99;101366.50;5102825;27;46181;-59
2023/11/26 07:13:22;;;;;;;;;2.50;2.50;;;;;6.25;62.29;101365.66;5103153;27;45398;-59
2023/11/26 07:15:50;;;;;;;;;11.25;7.00;;;;;6.27;62.01;101361.31;5103352;27;45871;-59
2023/11/26 07:18:15;;;;;;;;;8.50;6.50;;;;;6.30;62.05;101363.03;5092057;27;45306;-58
2023/11/26 07:20:41;;;;;;;;;10.75;7.00;;;;;6.32;61.97;101357.84;5083122;27;74312;-59
2023/11/26 07:23:06;;;;;;;;;5.00;3.75;;;;;6.34;61.92;101366.50;5098617;27;45378;-59
2023/11/26 07:25:32;;;;;;;;;8.25;5.75;;;;;6.34;61.92;101370.00;5096479;27;45522;-58
2023/11/26 07:27:58;;;;;;;;;7.75;6.00;;;;;6.37;61.99;101364.78;5081607;27;45296;-58
2023/11/26 07:30:23;;;;;;;;;7.00;4.00;;;;;6.39;62.02;101365.69;5080845;27;46316;-58
2023/11/26 07:32:50;;;;;;;;;8.00;8.00;;;;;6.41;62.15;101363.06;5099659;27;61590;-58
2023/11/26 07:35:16;;;;;;;;;6.75;5.50;;;;;6.43;61.96;101369.16;5098659;27;45260;-58
2023/11/26 07:37:41;;;;;;;;;3.75;3.00;;;;;6.44;61.94;101374.31;5097025;27;45524;-58
2023/11/26 07:40:07;;;;;;;;;7.50;6.50;;;;;6.48;61.82;101375.22;5100222;27;74451;-57
2023/11/26 07:42:34;;;;;;;;;7.00;4.00;;;;;6.51;61.72;101374.34;5064407;27;46109;-57
2023/11/26 07:44:59;;;;;;;;;7.25;5.25;;;;;6.53;61.66;101375.19;5101429;27;45429;-57
2023/11/26 07:47:25;;;;;;;;;10.75;7.75;;;;;6.55;61.77;101376.06;5079113;27;61584;-58
2023/11/26 07:49:50;;;;;;;;;11.25;7.25;;;;;6.56;61.55;101380.41;5095484;27;75666;-57
2023/11/26 07:52:16;;;;;;;;;7.00;6.00;;;;;6.60;61.60;101376.94;5095622;27;45332;-57
2023/11/26 07:54:41;;;;;;;;;11.25;4.75;;;;;6.63;61.55;101374.34;5098673;27;45290;-57
2023/11/26 07:57:07;;;;;;;;;7.25;6.25;;;;;6.66;61.64;101382.16;5099911;27;45195;-58
2023/11/26 07:59:32;;;;;;;;;8.00;6.00;;;;;6.67;61.65;101383.00;5100090;27;47040;-57
2023/11/26 08:01:58;;;;;;;;;11.50;8.00;;;;;6.67;61.61;101386.47;5093581;27;66109;-57
2023/11/26 08:04:26;;;;;;;;;10.50;8.75;;;;;6.69;61.65;101387.31;5096218;27;45578;-58
2023/11/26 08:06:52;;;;;;;;;9.00;7.25;;;;;6.72;61.70;101383.88;5097009;27;45493;-57
2023/11/26 08:09:18;;;;;;;;;10.75;8.50;;;;;6.77;61.50;101387.34;5102076;27;45923;-58
2023/11/26 08:11:46;;;;;;;;;13.50;9.00;;;;;6.80;61.56;101389.94;5095556;27;45420;-58
2023/11/26 08:14:13;;;;;;;;;11.75;8.00;;;;;6.82;61.50;101391.66;5100298;27;45373;-60
2023/11/26 08:16:39;;;;;;;;;13.75;8.00;;;;;6.86;61.39;101392.53;5084859;27;45913;-58
2023/11/26 08:19:11;;;;;;;;;13.75;9.00;;;;;6.88;61.31;101389.94;5102107;27;45330;-57
2023/11/26 08:21:37;;;;;;;;;10.75;7.50;;;;;6.96;61.28;101396.84;5082452;27;45303;-58
2023/11/26 08:24:07;;;;;;;;;14.00;10.50;;;;;7.01;61.07;101392.50;5098568;27;45339;-58
2023/11/26 08:26:35;;;;;;;;;8.75;8.00;;;;;7.09;61.26;101392.47;5097213;27;45489;-58
2023/11/26 08:29:01;;;;;;;;;10.50;7.00;;;;;7.15;61.01;101391.59;5076143;27;47028;-58
2023/11/26 08:31:27;;;;;;;;;13.00;9.00;;;;;7.18;60.67;101392.47;5069378;27;45406;-58
2023/11/26 08:33:54;;;;;;;;;11.75;10.00;;;;;7.23;60.65;101401.13;5097131;27;45287;-58
2023/11/26 08:36:20;;;;;;;;;8.75;8.75;;;;;7.25;60.67;101401.13;5076888;27;45517;-58
2023/11/26 08:38:46;;;;;;;;;9.50;8.75;;;;;7.31;60.64;101402.84;5095874;27;45390;-58
2023/11/26 08:41:13;;;;;;;;;14.50;9.00;;;;;7.34;60.54;101400.25;5101399;27;45390;-58
2023/11/26 08:43:43;;;;;;;;;12.75;7.75;;;;;7.37;60.44;101402.84;5083636;27;45420;-58
2023/11/26 08:46:10;;;;;;;;;9.00;8.75;;;;;7.37;60.18;101403.69;5094552;27;45426;-58
2023/11/26 08:48:36;;;;;;;;;10.00;8.75;;;;;7.36;60.11;101404.56;5079589;27;47763;-59
2023/11/26 08:51:02;;;;;;;;;11.00;7.25;;;;;7.40;60.16;101405.41;5098434;27;45855;-59
2023/11/26 08:53:28;;;;;;;;;12.50;9.75;;;;;7.41;60.25;101409.75;5095731;27;45466;-59
2023/11/26 08:55:54;;;;;;;;;17.00;7.50;;;;;7.43;60.17;101410.63;5097554;27;45279;-59
2023/11/26 08:58:19;;;;;;;;;14.25;11.25;;;;;7.46;60.25;101400.19;5097937;27;55819;-59
2023/11/26 09:00:45;;;;;;;;;12.75;10.50;;;;;7.49;60.13;101405.41;5097443;27;53508;-59
2023/11/26 09:03:12;;;;;;;;;15.25;12.75;;;;;7.51;60.30;101393.25;5099050;27;45291;-59
2023/11/26 09:05:37;;;;;;;;;14.00;10.50;;;;;7.54;60.30;101398.44;5088885;27;45213;-59
2023/11/26 09:08:02;;;;;;;;;14.25;11.00;;;;;7.58;60.08;101400.16;5082727;27;46912;-59
2023/11/26 09:10:28;;;;;;;;;15.25;10.25;;;;;7.65;60.11;101395.78;5101095;27;45233;-59
2023/11/26 09:12:54;;;;;;;;;12.75;11.25;;;;;7.71;59.96;101394.91;5089981;27;45353;-59
2023/11/26 09:15:19;;;;;;;;;14.50;10.25;;;;;7.77;59.83;101394.84;5100388;27;68964;-58
2023/11/26 09:17:45;;;;;;;;;16.00;9.75;;;;;7.79;59.13;101401.81;5089744;27;45512;-58
2023/11/26 09:20:13;;;;;;;;;9.50;7.00;;;;;7.81;59.63;101409.63;5091536;27;73056;-59
2023/11/26 09:22:42;;;;;;;;;10.00;8.00;;;;;7.83;59.59;101407.00;5088329;27;45353;-59
2023/11/26 09:25:08;;;;;;;;;12.25;8.00;;;;;7.87;59.41;101406.97;5084446;27;45368;-59
2023/11/26 09:27:35;;;;;;;;;9.00;7.00;;;;;7.90;59.60;101409.56;5082338;27;45681;-58
2023/11/26 09:30:00;;;;;;;;;7.25;5.00;;;;;7.94;59.43;101403.47;5067029;27;46130;-57
2023/11/26 09:32:25;;;;;;;;;8.75;6.25;;;;;7.96;59.24;101413.88;5093237;27;45473;-58
2023/11/26 09:34:53;;;;;;;;;13.75;7.00;;;;;7.98;59.37;101406.91;5104315;27;70081;-58
2023/11/26 09:37:19;;;;;;;;;16.00;9.00;;;;;7.99;59.16;101412.13;5089569;27;46069;-58
2023/11/26 09:39:46;;;;;;;;;15.00;9.25;;;;;8.00;59.09;101412.97;5088554;27;46085;-58
2023/11/26 09:42:12;;;;;;;;;11.00;6.75;;;;;8.02;59.24;101413.84;5076499;27;69865;-59
2023/11/26 09:44:37;;;;;;;;;8.75;7.00;;;;;8.03;59.15;101417.31;5095903;27;45450;-59
2023/11/26 09:47:03;;;;;;;;;10.75;8.00;;;;;8.04;59.19;101414.72;5092464;27;75606;-59
2023/11/26 09:49:28;;;;;;;;;9.50;7.75;;;;;8.02;59.08;101408.66;5093838;27;45394;-58
2023/11/26 09:51:56;;;;;;;;;14.50;11.00;;;;;8.02;59.13;101416.47;5077237;27;67287;-58
2023/11/26 09:54:25;;;;;;;;;9.00;9.00;;;;;8.04;59.12;101414.72;5082180;27;45415;-58
2023/11/26 09:57:02;;;;;;;;;14.25;10.50;;;;;8.06;58.93;101405.13;5081009;27;45184;-59
2023/11/26 09:59:30;;;;;;;;;16.75;7.75;;;;;8.11;59.01;101405.09;5099035;27;45167;-59
2023/11/26 10:01:58;;;;;;;;;10.00;8.00;;;;;8.15;58.92;101412.03;5088397;27;45354;-58
2023/11/26 10:04:24;;;;;;;;;14.75;9.50;;;;;8.17;59.12;101398.09;5092059;27;45484;-59
2023/11/26 10:06:54;;;;;;;;;13.25;10.25;;;;;8.23;58.84;101394.59;5095944;27;46376;-59
2023/11/26 10:09:20;;;;;;;;;17.00;10.00;;;;;8.22;58.67;101386.81;5084569;27;45347;-59
2023/11/26 10:11:46;;;;;;;;;11.25;8.00;;;;;8.19;58.64;101395.50;5083110;27;45367;-58
2023/11/26 10:14:19;;;;;;;;;15.75;8.75;;;;;8.20;58.60;101384.19;5086147;27;45561;-59
2023/11/26 10:16:45;;;;;;;;;18.75;14.00;;;;;8.24;58.92;101379.84;5090226;27;46370;-59
2023/11/26 10:19:24;;;;;;;;;14.00;10.00;;;;;8.31;58.48;101384.97;5092199;27;45475;-59
2023/11/26 10:21:59;;;;;;;;;16.00;10.50;;;;;8.34;58.51;101382.34;5088838;27;45481;-58
2023/11/26 10:24:27;;;;;;;;;11.00;9.00;;;;;8.39;58.50;101371.03;5090421;27;45654;-59
2023/11/26 10:26:54;;;;;;;;;13.25;10.00;;;;;8.43;58.58;101372.75;5089558;27;46126;-59
2023/11/26 10:29:23;;;;;;;;;11.25;8.00;;;;;8.47;58.46;101379.69;5099527;27;45384;-58
2023/11/26 10:31:57;;;;;;;;;11.50;9.50;;;;;8.51;58.31;101376.16;5099077;27;45346;-58
2023/11/26 10:34:22;;;;;;;;;15.00;10.00;;;;;8.50;58.29;101371.84;5100091;27;45342;-59
2023/11/26 10:36:48;;;;;;;;;10.50;9.25;;;;;8.53;58.20;101367.47;5085359;27;50085;-59
2023/11/26 10:39:14;;;;;;;;;12.00;7.50;;;;;8.60;58.24;101370.00;5063349;28;55206;-58
2023/11/26 10:41:40;;;;;;;;;11.00;7.00;;;;;8.62;58.22;101357.81;5085684;27;45423;-59
2023/11/26 10:44:07;;;;;;;;;11.75;9.00;;;;;8.64;57.90;101362.16;5071845;28;45259;-58
2023/11/26 10:46:34;;;;;;;;;10.75;7.00;;;;;8.69;57.98;101368.19;5095775;27;46211;-59
2023/11/26 10:49:10;;;;;;;;;10.75;8.75;;;;;8.73;57.78;101359.47;5100020;27;46472;-58
2023/11/26 10:51:38;;;;;;;;;17.75;13.25;;;;;8.79;57.77;101363.75;5097759;27;45303;-59
2023/11/26 10:54:06;;;;;;;;;12.25;7.75;;;;;8.84;57.40;101366.31;5077486;27;45354;-59
2023/11/26 10:56:37;;;;;;;;;11.00;8.75;;;;;8.87;57.62;101361.06;5095844;27;46315;-59
2023/11/26 10:59:02;;;;;;;;;11.25;8.50;;;;;8.90;57.46;101353.19;5079743;27;45438;-59
2023/11/26 11:01:28;;;;;;;;;16.75;11.00;;;;;8.96;57.55;101360.09;5082005;27;54843;-59
2023/11/26 11:03:55;;;;;;;;;13.25;10.00;;;;;9.01;57.23;101356.59;5097051;27;45491;-59
2023/11/26 11:06:23;;;;;;;;;16.25;11.00;;;;;9.07;57.28;101355.66;5086339;27;47508;-59
2023/11/26 11:08:49;;;;;;;;;17.75;12.25;;;;;9.14;57.23;101349.47;5092221;27;45317;-57
2023/11/26 11:11:43;;;;;;;;;14.00;10.50;;;;;9.21;57.07;101351.13;5097082;27;45498;-57
2023/11/26 11:14:08;;;;;;;;;12.50;10.00;;;;;9.26;56.69;101351.94;5088555;27;45229;-58
2023/11/26 11:16:34;;;;;;;;;13.00;11.25;;;;;9.28;56.65;101337.13;5086765;27;68063;-59
2023/11/26 11:18:59;;;;;;;;;11.75;9.00;;;;;9.34;56.80;101336.19;5066217;28;74666;-59
2023/11/26 11:21:25;;;;;;;;;13.50;12.00;;;;;9.39;56.46;101339.59;5093634;27;55956;-59
2023/11/26 11:23:53;;;;;;;;;14.75;12.00;;;;;9.40;56.01;101330.91;5101614;27;45588;-57
2023/11/26 11:26:20;;;;;;;;;13.00;10.50;;;;;9.37;56.34;101323.09;5100760;27;46573;-58
2023/11/26 11:28:49;;;;;;;;;12.75;10.00;;;;;9.39;56.26;101320.47;5076904;27;45268;-58